sensor_id;sensor_type;location;lat;lon;timestamp;temperature;humidity
30150;DHT22;16962;48.646;9.026;2023-06-14T00:02:07;12.30;99.90
30150;DHT22;16962;48.646;9.026;2023-06-14T00:04:57;12.30;99.90
30150;DHT22;16962;48.646;9.026;2023-06-14T00:07:48;12.10;99.90
30150;DHT22;16962;48.646;9.026;2023-06-14T00:10:36;12.00;99.90
30150;DHT22;16962;48.646;9.026;2023-06-14T00:13:23;11.80;99.90
30150;DHT22;16962;48.646;9.026;2023-06-14T00:16:11;11.60;99.90
30150;DHT22;16962;48.646;9.026;2023-06-14T00:19:06;11.50;99.90
30150;DHT22;16962;48.646;9.026;2023-06-14T00:21:53;11.70;99.90
30150;DHT22;16962;48.646;9.026;2023-06-14T00:24:40;11.80;99.90
30150;DHT22;16962;48.646;9.026;2023-06-14T00:27:30;11.70;99.90
30150;DHT22;16962;48.646;9.026;2023-06-14T00:30:18;11.50;99.90
30150;DHT22;16962;48.646;9.026;2023-06-14T00:33:08;11.40;99.90
30150;DHT22;16962;48.646;9.026;2023-06-14T00:35:55;11.30;96.70
30150;DHT22;16962;48.646;9.026;2023-06-14T00:38:42;11.20;99.90
30150;DHT22;16962;48.646;9.026;2023-06-14T00:41:32;11.20;99.90
30150;DHT22;16962;48.646;9.026;2023-06-14T00:44:20;11.00;99.90
30150;DHT22;16962;48.646;9.026;2023-06-14T00:47:08;11.00;99.90
30150;DHT22;16962;48.646;9.026;2023-06-14T00:49:56;11.10;99.90
30150;DHT22;16962;48.646;9.026;2023-06-14T00:52:47;11.10;99.90
30150;DHT22;16962;48.646;9.026;2023-06-14T00:55:34;11.10;99.90
30150;DHT22;16962;48.646;9.026;2023-06-14T00:58:24;10.90;99.90
30150;DHT22;16962;48.646;9.026;2023-06-14T01:01:11;10.90;99.90
30150;DHT22;16962;48.646;9.026;2023-06-14T01:03:59;10.90;99.90
30150;DHT22;16962;48.646;9.026;2023-06-14T01:06:59;10.90;94.50
30150;DHT22;16962;48.646;9.026;2023-06-14T01:15:56;10.70;99.90
30150;DHT22;16962;48.646;9.026;2023-06-14T01:18:44;10.70;99.90
30150;DHT22;16962;48.646;9.026;2023-06-14T01:21:35;10.70;99.90
30150;DHT22;16962;48.646;9.026;2023-06-14T01:24:28;10.70;99.90
30150;DHT22;16962;48.646;9.026;2023-06-14T01:27:19;10.60;99.90
30150;DHT22;16962;48.646;9.026;2023-06-14T01:30:08;10.60;99.90
30150;DHT22;16962;48.646;9.026;2023-06-14T01:32:58;10.60;99.90
30150;DHT22;16962;48.646;9.026;2023-06-14T01:35:49;10.40;99.90
30150;DHT22;16962;48.646;9.026;2023-06-14T01:38:39;10.50;99.90
30150;DHT22;16962;48.646;9.026;2023-06-14T01:41:28;10.60;99.90
30150;DHT22;16962;48.646;9.026;2023-06-14T01:44:20;10.60;99.90
30150;DHT22;16962;48.646;9.026;2023-06-14T01:47:10;10.70;99.90
30150;DHT22;16962;48.646;9.026;2023-06-14T01:49:58;10.60;99.90
30150;DHT22;16962;48.646;9.026;2023-06-14T01:52:48;10.50;99.90
30150;DHT22;16962;48.646;9.026;2023-06-14T01:55:35;10.40;99.90
30150;DHT22;16962;48.646;9.026;2023-06-14T01:58:25;10.40;99.90
30150;DHT22;16962;48.646;9.026;2023-06-14T02:01:15;10.50;99.90
30150;DHT22;16962;48.646;9.026;2023-06-14T02:04:06;10.40;99.90
30150;DHT22;16962;48.646;9.026;2023-06-14T02:06:58;10.50;99.90
30150;DHT22;16962;48.646;9.026;2023-06-14T02:09:45;10.60;99.90
30150;DHT22;16962;48.646;9.026;2023-06-14T02:12:32;10.70;99.90
30150;DHT22;16962;48.646;9.026;2023-06-14T02:15:22;10.80;99.90
30150;DHT22;16962;48.646;9.026;2023-06-14T02:18:10;10.90;99.90
30150;DHT22;16962;48.646;9.026;2023-06-14T02:21:00;10.90;99.90
30150;DHT22;16962;48.646;9.026;2023-06-14T02:23:47;10.90;99.90
30150;DHT22;16962;48.646;9.026;2023-06-14T02:26:35;10.80;99.90
30150;DHT22;16962;48.646;9.026;2023-06-14T02:29:22;10.70;99.90
30150;DHT22;16962;48.646;9.026;2023-06-14T02:32:09;10.50;99.90
30150;DHT22;16962;48.646;9.026;2023-06-14T02:34:57;10.30;99.90
30150;DHT22;16962;48.646;9.026;2023-06-14T02:37:49;10.20;99.90
30150;DHT22;16962;48.646;9.026;2023-06-14T02:40:38;10.30;99.90
30150;DHT22;16962;48.646;9.026;2023-06-14T02:43:25;10.30;99.90
30150;DHT22;16962;48.646;9.026;2023-06-14T02:46:12;10.10;99.90
30150;DHT22;16962;48.646;9.026;2023-06-14T02:49:01;10.00;99.90
30150;DHT22;16962;48.646;9.026;2023-06-14T02:51:50;9.90;99.90
30150;DHT22;16962;48.646;9.026;2023-06-14T02:54:38;9.80;99.90
30150;DHT22;16962;48.646;9.026;2023-06-14T02:57:26;9.70;99.90
30150;DHT22;16962;48.646;9.026;2023-06-14T03:00:13;9.80;99.90
30150;DHT22;16962;48.646;9.026;2023-06-14T03:03:01;9.80;99.90
30150;DHT22;16962;48.646;9.026;2023-06-14T03:05:49;9.90;99.90
30150;DHT22;16962;48.646;9.026;2023-06-14T03:08:40;10.00;99.90
30150;DHT22;16962;48.646;9.026;2023-06-14T03:11:28;10.00;99.90
30150;DHT22;16962;48.646;9.026;2023-06-14T03:14:17;9.80;99.90
30150;DHT22;16962;48.646;9.026;2023-06-14T03:17:06;9.80;99.90
30150;DHT22;16962;48.646;9.026;2023-06-14T03:19:55;9.90;99.90
30150;DHT22;16962;48.646;9.026;2023-06-14T03:22:43;10.00;99.90
30150;DHT22;16962;48.646;9.026;2023-06-14T03:25:33;10.00;99.90
30150;DHT22;16962;48.646;9.026;2023-06-14T03:28:22;10.00;99.90
30150;DHT22;16962;48.646;9.026;2023-06-14T03:31:09;9.90;99.90
30150;DHT22;16962;48.646;9.026;2023-06-14T03:33:57;9.80;99.90
30150;DHT22;16962;48.646;9.026;2023-06-14T03:36:44;9.70;99.90
30150;DHT22;16962;48.646;9.026;2023-06-14T03:39:31;9.60;99.90
30150;DHT22;16962;48.646;9.026;2023-06-14T03:42:18;9.70;99.90
30150;DHT22;16962;48.646;9.026;2023-06-14T03:45:08;9.80;99.90
30150;DHT22;16962;48.646;9.026;2023-06-14T03:47:56;9.90;99.90
30150;DHT22;16962;48.646;9.026;2023-06-14T03:50:43;10.00;99.90
30150;DHT22;16962;48.646;9.026;2023-06-14T03:53:31;10.00;99.90
30150;DHT22;16962;48.646;9.026;2023-06-14T03:56:21;9.90;99.90
30150;DHT22;16962;48.646;9.026;2023-06-14T03:59:10;9.80;99.90
30150;DHT22;16962;48.646;9.026;2023-06-14T04:02:32;9.80;99.90
30150;DHT22;16962;48.646;9.026;2023-06-14T04:09:48;10.10;99.90
30150;DHT22;16962;48.646;9.026;2023-06-14T04:12:35;10.30;99.90
30150;DHT22;16962;48.646;9.026;2023-06-14T04:15:23;10.50;99.90
30150;DHT22;16962;48.646;9.026;2023-06-14T04:18:20;10.60;99.90
30150;DHT22;16962;48.646;9.026;2023-06-14T04:21:10;10.70;99.90
30150;DHT22;16962;48.646;9.026;2023-06-14T04:23:58;10.70;99.90
30150;DHT22;16962;48.646;9.026;2023-06-14T04:26:49;10.80;99.90
30150;DHT22;16962;48.646;9.026;2023-06-14T04:29:38;10.90;99.90
30150;DHT22;16962;48.646;9.026;2023-06-14T04:32:26;11.00;99.90
30150;DHT22;16962;48.646;9.026;2023-06-14T04:35:14;11.10;99.90
30150;DHT22;16962;48.646;9.026;2023-06-14T04:38:03;11.20;99.90
30150;DHT22;16962;48.646;9.026;2023-06-14T04:40:54;11.40;99.90
30150;DHT22;16962;48.646;9.026;2023-06-14T04:43:44;11.60;99.90
30150;DHT22;16962;48.646;9.026;2023-06-14T04:46:35;11.60;99.90
30150;DHT22;16962;48.646;9.026;2023-06-14T04:49:35;11.70;99.90
30150;DHT22;16962;48.646;9.026;2023-06-14T04:52:22;11.80;99.90
30150;DHT22;16962;48.646;9.026;2023-06-14T04:55:13;11.90;99.90
30150;DHT22;16962;48.646;9.026;2023-06-14T04:58:04;12.00;99.90
30150;DHT22;16962;48.646;9.026;2023-06-14T05:00:51;12.10;99.90
30150;DHT22;16962;48.646;9.026;2023-06-14T05:03:43;12.30;99.90
30150;DHT22;16962;48.646;9.026;2023-06-14T05:06:32;12.30;99.90
30150;DHT22;16962;48.646;9.026;2023-06-14T05:09:19;12.30;99.90
30150;DHT22;16962;48.646;9.026;2023-06-14T05:12:08;12.20;99.90
30150;DHT22;16962;48.646;9.026;2023-06-14T05:14:55;12.20;99.90
30150;DHT22;16962;48.646;9.026;2023-06-14T05:17:45;12.30;99.90
30150;DHT22;16962;48.646;9.026;2023-06-14T05:20:35;12.30;99.90
30150;DHT22;16962;48.646;9.026;2023-06-14T05:23:23;12.40;99.90
30150;DHT22;16962;48.646;9.026;2023-06-14T05:26:13;12.40;99.90
30150;DHT22;16962;48.646;9.026;2023-06-14T05:29:00;12.60;99.90
30150;DHT22;16962;48.646;9.026;2023-06-14T05:31:48;12.70;99.90
30150;DHT22;16962;48.646;9.026;2023-06-14T05:34:38;12.80;99.90
30150;DHT22;16962;48.646;9.026;2023-06-14T05:37:27;12.90;99.90
30150;DHT22;16962;48.646;9.026;2023-06-14T05:40:14;13.10;98.60
30150;DHT22;16962;48.646;9.026;2023-06-14T05:43:04;13.30;95.60
30150;DHT22;16962;48.646;9.026;2023-06-14T05:45:51;13.60;72.40
30150;DHT22;16962;48.646;9.026;2023-06-14T05:48:38;13.80;51.00
30150;DHT22;16962;48.646;9.026;2023-06-14T05:51:25;14.00;22.30
30150;DHT22;16962;48.646;9.026;2023-06-14T05:54:13;14.20;23.30
30150;DHT22;16962;48.646;9.026;2023-06-14T05:57:00;14.40;24.30
30150;DHT22;16962;48.646;9.026;2023-06-14T05:59:50;14.50;27.30
30150;DHT22;16962;48.646;9.026;2023-06-14T06:02:41;14.60;20.20
30150;DHT22;16962;48.646;9.026;2023-06-14T06:09:04;15.00;4.10
30150;DHT22;16962;48.646;9.026;2023-06-14T06:11:53;15.20;1.00
30150;DHT22;16962;48.646;9.026;2023-06-14T06:14:48;15.40;1.00
30150;DHT22;16962;48.646;9.026;2023-06-14T06:17:38;15.50;1.00
30150;DHT22;16962;48.646;9.026;2023-06-14T06:20:43;15.70;1.00
30150;DHT22;16962;48.646;9.026;2023-06-14T06:23:47;15.80;1.00
30150;DHT22;16962;48.646;9.026;2023-06-14T06:26:35;15.90;1.00
30150;DHT22;16962;48.646;9.026;2023-06-14T06:29:28;16.00;1.00
30150;DHT22;16962;48.646;9.026;2023-06-14T06:32:15;16.10;1.00
30150;DHT22;16962;48.646;9.026;2023-06-14T06:35:03;16.30;1.00
30150;DHT22;16962;48.646;9.026;2023-06-14T06:37:53;16.40;1.00
30150;DHT22;16962;48.646;9.026;2023-06-14T06:40:42;16.60;1.00
30150;DHT22;16962;48.646;9.026;2023-06-14T06:43:31;16.80;1.00
30150;DHT22;16962;48.646;9.026;2023-06-14T06:46:19;16.90;1.00
30150;DHT22;16962;48.646;9.026;2023-06-14T06:49:09;17.10;1.00
30150;DHT22;16962;48.646;9.026;2023-06-14T06:52:03;17.30;1.00
30150;DHT22;16962;48.646;9.026;2023-06-14T06:54:51;17.50;1.00
30150;DHT22;16962;48.646;9.026;2023-06-14T06:57:55;17.80;1.00
30150;DHT22;16962;48.646;9.026;2023-06-14T07:01:20;18.20;1.00
30150;DHT22;16962;48.646;9.026;2023-06-14T07:04:12;18.70;1.00
30150;DHT22;16962;48.646;9.026;2023-06-14T07:07:03;19.00;1.00
30150;DHT22;16962;48.646;9.026;2023-06-14T07:09:50;19.40;1.00
30150;DHT22;16962;48.646;9.026;2023-06-14T07:12:37;19.90;1.00
30150;DHT22;16962;48.646;9.026;2023-06-14T07:15:26;20.50;1.00
30150;DHT22;16962;48.646;9.026;2023-06-14T07:18:16;21.00;1.00
30150;DHT22;16962;48.646;9.026;2023-06-14T07:21:06;21.40;1.00
30150;DHT22;16962;48.646;9.026;2023-06-14T07:23:54;21.60;1.00
30150;DHT22;16962;48.646;9.026;2023-06-14T07:26:47;21.90;1.00
30150;DHT22;16962;48.646;9.026;2023-06-14T07:29:43;22.40;1.00
30150;DHT22;16962;48.646;9.026;2023-06-14T07:32:31;22.80;1.00
30150;DHT22;16962;48.646;9.026;2023-06-14T07:35:18;23.20;1.00
30150;DHT22;16962;48.646;9.026;2023-06-14T07:38:09;23.60;1.00
30150;DHT22;16962;48.646;9.026;2023-06-14T07:40:57;23.90;1.00
30150;DHT22;16962;48.646;9.026;2023-06-14T07:43:50;24.20;1.00
30150;DHT22;16962;48.646;9.026;2023-06-14T07:46:47;24.70;1.00
30150;DHT22;16962;48.646;9.026;2023-06-14T07:49:40;24.60;1.00
30150;DHT22;16962;48.646;9.026;2023-06-14T07:52:28;24.70;1.00
30150;DHT22;16962;48.646;9.026;2023-06-14T07:55:15;24.40;1.00
30150;DHT22;16962;48.646;9.026;2023-06-14T07:58:03;24.40;1.00
30150;DHT22;16962;48.646;9.026;2023-06-14T08:00:51;24.80;36.50
30150;DHT22;16962;48.646;9.026;2023-06-14T08:03:38;25.00;29.10
30150;DHT22;16962;48.646;9.026;2023-06-14T08:06:28;25.60;16.60
30150;DHT22;16962;48.646;9.026;2023-06-14T08:09:16;25.80;43.90
30150;DHT22;16962;48.646;9.026;2023-06-14T08:12:05;26.00;44.90
30150;DHT22;16962;48.646;9.026;2023-06-14T08:14:57;25.90;87.40
30150;DHT22;16962;48.646;9.026;2023-06-14T08:18:05;26.30;78.60
30150;DHT22;16962;48.646;9.026;2023-06-14T08:20:58;25.90;41.90
30150;DHT22;16962;48.646;9.026;2023-06-14T08:23:48;25.90;41.90
30150;DHT22;16962;48.646;9.026;2023-06-14T08:26:43;26.50;48.40
30150;DHT22;16962;48.646;9.026;2023-06-14T08:29:33;25.80;51.00
30150;DHT22;16962;48.646;9.026;2023-06-14T08:32:23;26.00;58.00
30150;DHT22;16962;48.646;9.026;2023-06-14T08:35:11;26.40;58.60
30150;DHT22;16962;48.646;9.026;2023-06-14T08:38:09;26.60;50.10
30150;DHT22;16962;48.646;9.026;2023-06-14T08:41:10;26.60;47.60
30150;DHT22;16962;48.646;9.026;2023-06-14T08:44:02;27.00;97.20
30150;DHT22;16962;48.646;9.026;2023-06-14T08:47:24;27.30;99.70
30150;DHT22;16962;48.646;9.026;2023-06-14T08:50:32;27.00;99.10
30150;DHT22;16962;48.646;9.026;2023-06-14T08:53:36;27.90;99.90
30150;DHT22;16962;48.646;9.026;2023-06-14T08:56:31;28.10;99.90
30150;DHT22;16962;48.646;9.026;2023-06-14T08:59:21;28.40;99.90
30150;DHT22;16962;48.646;9.026;2023-06-14T09:02:18;28.60;99.90
30150;DHT22;16962;48.646;9.026;2023-06-14T09:05:27;28.10;99.90
30150;DHT22;16962;48.646;9.026;2023-06-14T09:08:15;28.20;99.90
30150;DHT22;16962;48.646;9.026;2023-06-14T09:11:06;28.20;99.90
30150;DHT22;16962;48.646;9.026;2023-06-14T09:13:54;28.60;99.90
30150;DHT22;16962;48.646;9.026;2023-06-14T09:16:44;29.30;99.90
30150;DHT22;16962;48.646;9.026;2023-06-14T09:23:20;29.10;99.90
30150;DHT22;16962;48.646;9.026;2023-06-14T09:26:14;29.60;99.90
30150;DHT22;16962;48.646;9.026;2023-06-14T09:29:05;29.40;99.90
30150;DHT22;16962;48.646;9.026;2023-06-14T09:32:39;29.90;99.90
30150;DHT22;16962;48.646;9.026;2023-06-14T09:35:51;30.40;99.90
30150;DHT22;16962;48.646;9.026;2023-06-14T09:38:57;30.40;99.90
30150;DHT22;16962;48.646;9.026;2023-06-14T09:41:59;31.00;99.90
30150;DHT22;16962;48.646;9.026;2023-06-14T09:44:51;30.50;99.90
30150;DHT22;16962;48.646;9.026;2023-06-14T09:47:38;30.10;99.90
30150;DHT22;16962;48.646;9.026;2023-06-14T09:50:50;30.10;99.90
30150;DHT22;16962;48.646;9.026;2023-06-14T09:53:47;30.70;99.90
30150;DHT22;16962;48.646;9.026;2023-06-14T09:56:47;30.70;99.90
30150;DHT22;16962;48.646;9.026;2023-06-14T10:00:06;30.80;99.90
30150;DHT22;16962;48.646;9.026;2023-06-14T10:03:23;30.20;99.90
30150;DHT22;16962;48.646;9.026;2023-06-14T10:06:12;30.10;99.90
30150;DHT22;16962;48.646;9.026;2023-06-14T10:09:04;30.30;99.90
30150;DHT22;16962;48.646;9.026;2023-06-14T10:11:52;30.30;99.90
30150;DHT22;16962;48.646;9.026;2023-06-14T10:14:42;30.60;99.90
30150;DHT22;16962;48.646;9.026;2023-06-14T10:17:43;30.80;99.90
30150;DHT22;16962;48.646;9.026;2023-06-14T10:20:42;31.70;99.90
30150;DHT22;16962;48.646;9.026;2023-06-14T10:23:36;31.50;99.90
30150;DHT22;16962;48.646;9.026;2023-06-14T10:26:24;32.20;99.90
30150;DHT22;16962;48.646;9.026;2023-06-14T10:29:13;32.70;99.90
30150;DHT22;16962;48.646;9.026;2023-06-14T10:32:00;32.10;99.90
30150;DHT22;16962;48.646;9.026;2023-06-14T10:35:00;31.50;99.90
30150;DHT22;16962;48.646;9.026;2023-06-14T10:37:47;32.40;99.90
30150;DHT22;16962;48.646;9.026;2023-06-14T10:40:38;32.60;99.90
30150;DHT22;16962;48.646;9.026;2023-06-14T10:43:28;32.20;99.90
30150;DHT22;16962;48.646;9.026;2023-06-14T10:46:19;31.80;99.90
30150;DHT22;16962;48.646;9.026;2023-06-14T10:49:10;31.90;99.90
30150;DHT22;16962;48.646;9.026;2023-06-14T10:51:57;30.00;99.90
30150;DHT22;16962;48.646;9.026;2023-06-14T10:57:58;29.30;99.90
30150;DHT22;16962;48.646;9.026;2023-06-14T11:00:49;30.60;99.90
30150;DHT22;16962;48.646;9.026;2023-06-14T11:03:51;31.70;99.90
30150;DHT22;16962;48.646;9.026;2023-06-14T11:07:10;31.20;99.90
30150;DHT22;16962;48.646;9.026;2023-06-14T11:12:57;29.30;99.90
30150;DHT22;16962;48.646;9.026;2023-06-14T11:15:51;30.40;99.90
30150;DHT22;16962;48.646;9.026;2023-06-14T11:18:42;31.50;99.90
30150;DHT22;16962;48.646;9.026;2023-06-14T11:21:32;31.70;99.90
30150;DHT22;16962;48.646;9.026;2023-06-14T11:24:20;32.40;99.90
30150;DHT22;16962;48.646;9.026;2023-06-14T11:27:08;31.20;99.90
30150;DHT22;16962;48.646;9.026;2023-06-14T11:29:56;29.60;99.90
30150;DHT22;16962;48.646;9.026;2023-06-14T11:32:49;30.60;99.90
30150;DHT22;16962;48.646;9.026;2023-06-14T11:35:39;31.40;99.90
30150;DHT22;16962;48.646;9.026;2023-06-14T11:38:30;32.70;99.90
30150;DHT22;16962;48.646;9.026;2023-06-14T11:41:20;33.50;99.90
30150;DHT22;16962;48.646;9.026;2023-06-14T11:44:07;33.90;99.90
30150;DHT22;16962;48.646;9.026;2023-06-14T11:46:55;33.00;99.90
30150;DHT22;16962;48.646;9.026;2023-06-14T11:49:46;32.70;99.90
30150;DHT22;16962;48.646;9.026;2023-06-14T11:52:33;32.20;99.90
30150;DHT22;16962;48.646;9.026;2023-06-14T11:55:22;32.70;99.90
30150;DHT22;16962;48.646;9.026;2023-06-14T11:58:18;33.50;99.90
30150;DHT22;16962;48.646;9.026;2023-06-14T12:01:18;33.60;99.90
30150;DHT22;16962;48.646;9.026;2023-06-14T12:04:05;35.30;99.90
30150;DHT22;16962;48.646;9.026;2023-06-14T12:06:56;36.10;99.90
30150;DHT22;16962;48.646;9.026;2023-06-14T12:12:42;34.40;99.90
30150;DHT22;16962;48.646;9.026;2023-06-14T12:15:34;31.20;99.90
30150;DHT22;16962;48.646;9.026;2023-06-14T12:18:32;29.20;99.90
30150;DHT22;16962;48.646;9.026;2023-06-14T12:21:23;27.60;99.90
30150;DHT22;16962;48.646;9.026;2023-06-14T12:24:12;27.40;99.90
30150;DHT22;16962;48.646;9.026;2023-06-14T12:27:01;28.50;99.90
30150;DHT22;16962;48.646;9.026;2023-06-14T12:29:59;30.50;99.90
30150;DHT22;16962;48.646;9.026;2023-06-14T12:32:50;31.50;99.90
30150;DHT22;16962;48.646;9.026;2023-06-14T12:35:46;33.00;99.90
30150;DHT22;16962;48.646;9.026;2023-06-14T12:38:37;32.70;99.90
30150;DHT22;16962;48.646;9.026;2023-06-14T12:41:26;31.00;99.90
30150;DHT22;16962;48.646;9.026;2023-06-14T12:44:16;29.50;99.90
30150;DHT22;16962;48.646;9.026;2023-06-14T12:47:05;29.50;99.90
30150;DHT22;16962;48.646;9.026;2023-06-14T12:49:53;30.00;99.90
30150;DHT22;16962;48.646;9.026;2023-06-14T12:52:40;28.50;99.90
30150;DHT22;16962;48.646;9.026;2023-06-14T12:56:02;28.30;99.90
30150;DHT22;16962;48.646;9.026;2023-06-14T12:58:50;29.40;99.90
30150;DHT22;16962;48.646;9.026;2023-06-14T13:01:41;31.20;99.90
30150;DHT22;16962;48.646;9.026;2023-06-14T13:04:39;32.10;99.90
30150;DHT22;16962;48.646;9.026;2023-06-14T13:07:33;32.20;99.90
30150;DHT22;16962;48.646;9.026;2023-06-14T13:10:22;32.20;99.90
30150;DHT22;16962;48.646;9.026;2023-06-14T13:13:11;33.10;99.90
30150;DHT22;16962;48.646;9.026;2023-06-14T13:16:00;34.20;99.90
30150;DHT22;16962;48.646;9.026;2023-06-14T13:18:47;35.10;99.90
30150;DHT22;16962;48.646;9.026;2023-06-14T13:21:35;35.20;99.90
30150;DHT22;16962;48.646;9.026;2023-06-14T13:24:24;35.50;99.90
30150;DHT22;16962;48.646;9.026;2023-06-14T13:27:12;35.80;99.90
30150;DHT22;16962;48.646;9.026;2023-06-14T13:30:01;35.30;99.90
30150;DHT22;16962;48.646;9.026;2023-06-14T13:32:49;34.20;99.90
30150;DHT22;16962;48.646;9.026;2023-06-14T13:35:39;32.90;99.90
30150;DHT22;16962;48.646;9.026;2023-06-14T13:38:29;32.70;99.90
30150;DHT22;16962;48.646;9.026;2023-06-14T13:41:17;33.10;99.90
30150;DHT22;16962;48.646;9.026;2023-06-14T13:44:13;33.50;99.90
30150;DHT22;16962;48.646;9.026;2023-06-14T13:47:06;33.70;99.90
30150;DHT22;16962;48.646;9.026;2023-06-14T13:49:53;33.30;99.90
30150;DHT22;16962;48.646;9.026;2023-06-14T13:52:43;32.10;99.90
30150;DHT22;16962;48.646;9.026;2023-06-14T13:55:30;32.90;99.90
30150;DHT22;16962;48.646;9.026;2023-06-14T13:58:20;33.80;99.90
30150;DHT22;16962;48.646;9.026;2023-06-14T14:01:15;34.30;99.90
30150;DHT22;16962;48.646;9.026;2023-06-14T14:04:15;34.40;99.90
30150;DHT22;16962;48.646;9.026;2023-06-14T14:07:05;34.10;99.90
30150;DHT22;16962;48.646;9.026;2023-06-14T14:09:53;34.90;99.90
30150;DHT22;16962;48.646;9.026;2023-06-14T14:12:40;35.50;99.90
30150;DHT22;16962;48.646;9.026;2023-06-14T14:15:29;35.30;99.90
30150;DHT22;16962;48.646;9.026;2023-06-14T14:18:22;34.10;99.90
30150;DHT22;16962;48.646;9.026;2023-06-14T14:21:12;33.10;99.90
30150;DHT22;16962;48.646;9.026;2023-06-14T14:24:03;33.20;99.90
30150;DHT22;16962;48.646;9.026;2023-06-14T14:26:58;32.40;99.90
30150;DHT22;16962;48.646;9.026;2023-06-14T14:29:47;30.90;99.90
30150;DHT22;16962;48.646;9.026;2023-06-14T14:32:40;31.20;99.90
30150;DHT22;16962;48.646;9.026;2023-06-14T14:35:28;30.30;99.90
30150;DHT22;16962;48.646;9.026;2023-06-14T14:38:19;30.80;99.90
30150;DHT22;16962;48.646;9.026;2023-06-14T14:44:05;32.00;99.90
30150;DHT22;16962;48.646;9.026;2023-06-14T14:46:55;30.70;99.90
30150;DHT22;16962;48.646;9.026;2023-06-14T14:49:42;30.90;99.90
30150;DHT22;16962;48.646;9.026;2023-06-14T14:52:36;30.60;99.90
30150;DHT22;16962;48.646;9.026;2023-06-14T14:55:26;30.50;99.90
30150;DHT22;16962;48.646;9.026;2023-06-14T14:58:16;30.60;99.90
30150;DHT22;16962;48.646;9.026;2023-06-14T15:01:09;30.50;99.90
30150;DHT22;16962;48.646;9.026;2023-06-14T15:04:06;28.80;99.90
30150;DHT22;16962;48.646;9.026;2023-06-14T15:06:54;27.30;99.90
30150;DHT22;16962;48.646;9.026;2023-06-14T15:10:02;26.10;99.90
30150;DHT22;16962;48.646;9.026;2023-06-14T15:13:05;26.10;99.90
30150;DHT22;16962;48.646;9.026;2023-06-14T15:16:12;27.60;99.90
30150;DHT22;16962;48.646;9.026;2023-06-14T15:19:41;29.30;99.90
30150;DHT22;16962;48.646;9.026;2023-06-14T15:22:31;30.90;99.90
30150;DHT22;16962;48.646;9.026;2023-06-14T15:25:21;30.60;99.90
30150;DHT22;16962;48.646;9.026;2023-06-14T15:28:08;30.70;99.90
30150;DHT22;16962;48.646;9.026;2023-06-14T15:30:56;30.60;99.90
30150;DHT22;16962;48.646;9.026;2023-06-14T15:33:44;29.60;99.90
30150;DHT22;16962;48.646;9.026;2023-06-14T15:36:31;28.00;99.90
30150;DHT22;16962;48.646;9.026;2023-06-14T15:39:19;26.60;99.90
30150;DHT22;16962;48.646;9.026;2023-06-14T15:42:09;25.90;99.90
30150;DHT22;16962;48.646;9.026;2023-06-14T15:44:58;25.40;99.90
30150;DHT22;16962;48.646;9.026;2023-06-14T15:47:46;26.00;99.90
30150;DHT22;16962;48.646;9.026;2023-06-14T15:50:33;26.60;99.90
30150;DHT22;16962;48.646;9.026;2023-06-14T15:53:20;27.50;99.90
30150;DHT22;16962;48.646;9.026;2023-06-14T15:56:08;28.10;99.90
30150;DHT22;16962;48.646;9.026;2023-06-14T15:58:58;28.20;99.90
30150;DHT22;16962;48.646;9.026;2023-06-14T16:02:01;27.10;99.90
30150;DHT22;16962;48.646;9.026;2023-06-14T16:04:49;26.90;99.90
30150;DHT22;16962;48.646;9.026;2023-06-14T16:07:41;27.40;99.90
30150;DHT22;16962;48.646;9.026;2023-06-14T16:10:31;27.80;99.90
30150;DHT22;16962;48.646;9.026;2023-06-14T16:13:20;28.20;99.90
30150;DHT22;16962;48.646;9.026;2023-06-14T16:16:12;28.10;99.90
30150;DHT22;16962;48.646;9.026;2023-06-14T16:18:59;27.70;99.90
30150;DHT22;16962;48.646;9.026;2023-06-14T16:21:46;26.90;99.90
30150;DHT22;16962;48.646;9.026;2023-06-14T16:24:34;26.40;99.90
30150;DHT22;16962;48.646;9.026;2023-06-14T16:27:21;26.00;99.90
30150;DHT22;16962;48.646;9.026;2023-06-14T16:30:11;25.50;99.90
30150;DHT22;16962;48.646;9.026;2023-06-14T16:32:59;25.00;99.90
30150;DHT22;16962;48.646;9.026;2023-06-14T16:35:47;24.40;99.90
30150;DHT22;16962;48.646;9.026;2023-06-14T16:38:41;24.00;99.90
30150;DHT22;16962;48.646;9.026;2023-06-14T16:41:29;23.90;99.90
30150;DHT22;16962;48.646;9.026;2023-06-14T16:44:16;23.90;99.90
30150;DHT22;16962;48.646;9.026;2023-06-14T16:47:04;23.80;99.90
30150;DHT22;16962;48.646;9.026;2023-06-14T16:49:53;23.80;99.90
30150;DHT22;16962;48.646;9.026;2023-06-14T16:52:40;23.60;99.90
30150;DHT22;16962;48.646;9.026;2023-06-14T16:55:28;23.40;99.90
30150;DHT22;16962;48.646;9.026;2023-06-14T16:58:16;23.20;99.90
30150;DHT22;16962;48.646;9.026;2023-06-14T17:01:11;23.00;99.90
30150;DHT22;16962;48.646;9.026;2023-06-14T17:03:59;23.00;99.90
30150;DHT22;16962;48.646;9.026;2023-06-14T17:06:47;22.90;99.90
30150;DHT22;16962;48.646;9.026;2023-06-14T17:09:34;22.80;99.90
30150;DHT22;16962;48.646;9.026;2023-06-14T17:12:22;22.70;99.90
30150;DHT22;16962;48.646;9.026;2023-06-14T17:15:09;22.60;99.90
30150;DHT22;16962;48.646;9.026;2023-06-14T17:17:57;22.50;99.90
30150;DHT22;16962;48.646;9.026;2023-06-14T17:20:44;22.40;99.90
30150;DHT22;16962;48.646;9.026;2023-06-14T17:23:31;22.30;99.90
30150;DHT22;16962;48.646;9.026;2023-06-14T17:26:20;22.30;99.90
30150;DHT22;16962;48.646;9.026;2023-06-14T17:29:07;22.20;99.90
30150;DHT22;16962;48.646;9.026;2023-06-14T17:31:54;22.10;99.90
30150;DHT22;16962;48.646;9.026;2023-06-14T17:34:43;22.00;99.90
30150;DHT22;16962;48.646;9.026;2023-06-14T17:37:31;21.90;99.90
30150;DHT22;16962;48.646;9.026;2023-06-14T17:40:19;21.80;99.90
30150;DHT22;16962;48.646;9.026;2023-06-14T17:43:06;21.80;99.90
30150;DHT22;16962;48.646;9.026;2023-06-14T17:45:54;21.70;99.90
30150;DHT22;16962;48.646;9.026;2023-06-14T17:48:42;21.60;99.90
30150;DHT22;16962;48.646;9.026;2023-06-14T17:51:30;21.50;99.90
30150;DHT22;16962;48.646;9.026;2023-06-14T17:54:17;21.40;99.90
30150;DHT22;16962;48.646;9.026;2023-06-14T17:57:04;21.30;99.90
30150;DHT22;16962;48.646;9.026;2023-06-14T17:59:52;21.20;99.90
30150;DHT22;16962;48.646;9.026;2023-06-14T18:02:42;21.20;99.90
30150;DHT22;16962;48.646;9.026;2023-06-14T18:05:32;21.10;99.90
30150;DHT22;16962;48.646;9.026;2023-06-14T18:08:19;21.10;99.90
30150;DHT22;16962;48.646;9.026;2023-06-14T18:11:10;21.00;99.90
30150;DHT22;16962;48.646;9.026;2023-06-14T18:14:01;21.00;99.90
30150;DHT22;16962;48.646;9.026;2023-06-14T18:17:08;20.90;99.90
30150;DHT22;16962;48.646;9.026;2023-06-14T18:19:55;20.80;99.90
30150;DHT22;16962;48.646;9.026;2023-06-14T18:22:42;20.70;99.90
30150;DHT22;16962;48.646;9.026;2023-06-14T18:25:30;20.70;99.90
30150;DHT22;16962;48.646;9.026;2023-06-14T18:28:17;20.60;99.90
30150;DHT22;16962;48.646;9.026;2023-06-14T18:31:08;20.40;99.90
30150;DHT22;16962;48.646;9.026;2023-06-14T18:33:56;20.30;99.90